Time;durP1;ratioP1;P1;durP2;ratioP2;P2;SDS_P1;SDS_P2;PMS_P1;PMS_P2;Temp;Humidity;BMP_temperature;BMP_pressure;BME280_temperature;BME280_humidity;BME280_pressure;Samples;Min_cycle;Max_cycle;Signal;HPM_P1;HPM_P2
2023/03/02 00:00:03;;;;;;;;;62.33;46.00;;;;;5.27;45.22;101874.88;1996963;28;3625611;-76
2023/03/02 00:01:15;;;;;;;;;58.33;45.00;;;;;5.27;45.05;101879.22;2000415;28;3617935;-76
2023/03/02 00:02:28;;;;;;;;;58.00;44.57;;;;;5.25;45.10;101873.13;2016380;27;3607534;-76
2023/03/02 00:03:40;;;;;;;;;59.67;45.00;;;;;5.25;45.30;101870.50;2013906;28;3613801;-75
2023/03/02 00:04:55;;;;;;;;;62.33;48.67;;;;;5.25;45.29;101875.72;2009088;28;3621540;-76
2023/03/02 00:06:07;;;;;;;;;56.00;43.33;;;;;5.24;45.11;101868.75;2000589;28;3624180;-76
2023/03/02 00:07:30;;;;;;;;;55.67;46.00;;;;;5.23;45.56;101874.84;1999589;28;3593997;-76
2023/03/02 00:08:42;;;;;;;;;59.00;46.00;;;;;5.21;45.31;101876.56;2016912;28;3618984;-76
2023/03/02 00:09:54;;;;;;;;;55.67;43.33;;;;;5.21;45.43;101876.56;1999144;28;3622200;-76
2023/03/02 00:11:06;;;;;;;;;52.33;43.33;;;;;5.20;45.56;101877.44;2006636;28;3591894;-76
2023/03/02 00:12:18;;;;;;;;;53.67;44.33;;;;;5.20;45.55;101882.63;2028420;28;3589827;-76
2023/03/02 00:13:34;;;;;;;;;39.86;23.00;;;;;5.20;45.91;101885.25;2044723;28;2874242;-76
2023/03/02 00:14:46;;;;;;;;;56.00;46.00;;;;;5.18;45.67;101877.41;2021993;28;3607482;-76
2023/03/02 00:15:58;;;;;;;;;60.33;46.33;;;;;5.18;45.67;101880.88;2032070;28;3616886;-76
2023/03/02 00:17:10;;;;;;;;;59.33;46.00;;;;;5.17;45.66;101879.16;2009316;28;3616965;-76
2023/03/02 00:18:22;;;;;;;;;61.00;47.00;;;;;5.16;45.44;101877.38;2016451;27;3622105;-76
2023/03/02 00:19:35;;;;;;;;;51.67;42.67;;;;;5.15;45.41;101878.28;2012955;28;3595070;-76
2023/03/02 00:20:46;;;;;;;;;58.00;44.67;;;;;5.14;45.97;101879.13;2021346;28;3620010;-76
2023/03/02 00:21:58;;;;;;;;;56.67;45.33;;;;;5.12;45.86;101880.84;2012463;27;3581496;-76
2023/03/02 00:23:10;;;;;;;;;53.67;43.67;;;;;5.12;45.83;101874.75;2031647;27;3606524;-76
2023/03/02 00:24:22;;;;;;;;;56.67;43.33;;;;;5.11;45.98;101886.91;2011791;28;3615936;-76
2023/03/02 00:25:35;;;;;;;;;56.67;46.67;;;;;5.11;45.84;101879.09;2013812;28;3600266;-76
2023/03/02 00:26:46;;;;;;;;;61.00;47.00;;;;;5.10;45.88;101885.19;1998655;28;3621115;-75
2023/03/02 00:27:58;;;;;;;;;56.00;45.00;;;;;5.09;46.05;101880.81;2017168;28;3614806;-76
2023/03/02 00:29:10;;;;;;;;;56.00;44.67;;;;;5.11;46.03;101878.22;2013040;28;3610736;-76
2023/03/02 00:30:22;;;;;;;;;57.33;43.67;;;;;5.08;45.83;101871.25;2014707;28;3616909;-76
2023/03/02 00:31:34;;;;;;;;;56.40;43.20;;;;;5.09;46.04;101877.34;2006356;28;3602317;-75
2023/03/02 00:32:46;;;;;;;;;56.67;45.33;;;;;5.05;46.11;101877.31;2016175;27;3620018;-76
2023/03/02 00:33:58;;;;;;;;;55.33;45.33;;;;;5.05;46.25;101876.44;2016018;27;3609610;-76
2023/03/02 00:35:10;;;;;;;;;60.67;45.33;;;;;5.04;46.16;101872.94;2039058;28;3612739;-76
2023/03/02 00:36:22;;;;;;;;;56.33;40.67;;;;;5.04;46.02;101880.78;2010833;28;3616928;-76
2023/03/02 00:37:35;;;;;;;;;55.33;43.67;;;;;5.02;45.99;101873.81;2004749;28;3614849;-76
2023/03/02 00:38:47;;;;;;;;;64.33;47.00;;;;;5.01;46.28;101880.75;2000259;28;3644034;-76
2023/03/02 00:39:58;;;;;;;;;60.00;43.67;;;;;5.00;46.02;101878.13;2006214;27;3631468;-76
2023/03/02 00:41:12;;;;;;;;;55.00;43.00;;;;;4.99;45.97;101879.00;2006139;28;3621125;-76
2023/03/02 00:42:24;;;;;;;;;57.33;44.67;;;;;4.97;46.15;101871.16;1994458;28;3613791;-76
2023/03/02 00:43:36;;;;;;;;;55.00;43.67;;;;;4.97;46.67;101875.47;2007761;28;3615852;-76
2023/03/02 00:44:48;;;;;;;;;60.00;48.00;;;;;4.95;46.29;101873.75;2010401;28;3617939;-76
2023/03/02 00:46:08;;;;;;;;;54.00;41.67;;;;;4.94;46.38;101879.81;2020428;28;3589874;-76
2023/03/02 00:47:19;;;;;;;;;54.00;41.33;;;;;4.92;46.42;101881.53;2022464;27;3611680;-76
2023/03/02 00:48:31;;;;;;;;;56.00;44.33;;;;;4.91;45.92;101878.94;2012932;28;3595031;-76
2023/03/02 00:49:47;;;;;;;;;54.71;44.71;;;;;4.89;46.51;101872.84;2015719;27;3614849;-76
2023/03/02 00:50:59;;;;;;;;;56.33;44.33;;;;;4.87;46.22;101878.00;2007785;27;3616936;-76
2023/03/02 00:52:11;;;;;;;;;57.67;44.67;;;;;4.85;46.49;101871.91;2005360;27;3602381;-76
2023/03/02 00:53:24;;;;;;;;;53.14;41.86;;;;;4.86;46.51;101881.50;2013589;27;3614331;-76
2023/03/02 00:54:35;;;;;;;;;25.00;14.50;;;;;4.86;46.40;101878.88;2014755;28;2829425;-76
2023/03/02 00:55:53;;;;;;;;;56.43;45.43;;;;;4.84;46.65;101877.97;2017981;27;3598108;-76
2023/03/02 00:57:04;;;;;;;;;56.00;42.67;;;;;4.82;46.47;101875.38;2007330;27;3614912;-76
2023/03/02 00:58:16;;;;;;;;;56.00;43.00;;;;;4.83;46.39;101884.06;2013696;28;3597113;-76
2023/03/02 00:59:28;;;;;;;;;60.33;46.00;;;;;4.82;46.59;101883.19;2012349;28;3622129;-76
2023/03/02 01:00:40;;;;;;;;;57.00;44.67;;;;;4.82;45.90;101879.69;2013567;28;3612730;-76
2023/03/02 01:01:56;;;;;;;;;65.67;47.67;;;;;4.81;46.73;101877.97;2014896;28;3642941;-75
2023/03/02 01:03:08;;;;;;;;;54.33;45.67;;;;;4.81;46.75;101877.97;1999440;28;3589807;-76
2023/03/02 01:04:21;;;;;;;;;57.71;44.57;;;;;4.78;46.06;101877.94;2040364;27;3623228;-76
2023/03/02 01:05:35;;;;;;;;;53.67;42.67;;;;;4.76;46.78;101877.03;2016857;27;3589862;-76
2023/03/02 01:06:46;;;;;;;;;61.33;43.33;;;;;4.75;46.16;101876.16;1999859;27;3637714;-76
2023/03/02 01:07:58;;;;;;;;;59.00;45.00;;;;;4.73;46.67;101881.38;2018035;27;3631468;-76
2023/03/02 01:09:11;;;;;;;;;59.00;43.67;;;;;4.73;46.75;101880.50;2017664;27;3622597;-76
2023/03/02 01:10:22;;;;;;;;;56.33;44.00;;;;;4.71;46.93;101875.28;1997636;28;3611745;-76
2023/03/02 01:11:35;;;;;;;;;59.14;45.14;;;;;4.71;46.92;101875.28;2017387;27;3610690;-76
2023/03/02 01:12:47;;;;;;;;;56.67;43.00;;;;;4.70;46.75;101878.72;2015841;27;3603359;-76
2023/03/02 01:14:01;;;;;;;;;60.75;45.00;;;;;4.70;46.86;101883.94;2038454;28;3647068;-76
2023/03/02 01:15:13;;;;;;;;;52.67;41.00;;;;;4.68;46.57;101875.25;1998673;27;3598183;-76
2023/03/02 01:16:24;;;;;;;;;58.33;45.33;;;;;4.68;46.61;101882.16;2022266;28;3607557;-76
2023/03/02 01:17:35;;;;;;;;;60.60;45.80;;;;;4.67;46.79;101883.03;2003250;28;2880508;-76
2023/03/02 01:18:47;;;;;;;;;57.00;44.00;;;;;4.66;46.94;101878.69;2032591;28;3608867;-76
2023/03/02 01:19:59;;;;;;;;;54.33;37.67;;;;;4.65;46.76;101877.81;2009848;28;3619320;-76
2023/03/02 01:21:14;;;;;;;;;53.67;43.00;;;;;4.65;47.05;101876.91;2013803;28;3610670;-76
2023/03/02 01:22:25;;;;;;;;;60.33;45.00;;;;;4.65;47.00;101879.53;2024447;28;3627335;-76
2023/03/02 01:23:37;;;;;;;;;50.67;40.33;;;;;4.66;47.10;101879.56;2010120;28;3587735;-75
2023/03/02 01:24:49;;;;;;;;;60.33;44.67;;;;;4.66;47.30;101878.69;2040517;28;3635642;-76
2023/03/02 01:26:02;;;;;;;;;55.00;44.00;;;;;4.66;46.89;101876.97;2014629;27;3602329;-75
2023/03/02 01:27:14;;;;;;;;;53.33;44.33;;;;;4.67;46.68;101876.09;1999188;28;3601654;-75
2023/03/02 01:28:25;;;;;;;;;58.20;44.60;;;;;4.67;47.29;101876.09;2001170;28;3614810;-75
2023/03/02 01:29:37;;;;;;;;;54.67;43.00;;;;;4.68;46.76;101869.16;2010638;28;3610620;-75
2023/03/02 01:30:49;;;;;;;;;51.33;42.67;;;;;4.68;46.99;101870.03;2013009;28;3603364;-75
2023/03/02 01:32:01;;;;;;;;;53.67;44.00;;;;;4.70;47.25;101870.91;2034416;27;3594046;-76
2023/03/02 01:33:13;;;;;;;;;57.67;45.00;;;;;4.69;46.92;101869.16;2025873;28;3629423;-75
2023/03/02 01:34:25;;;;;;;;;58.00;43.00;;;;;4.70;46.59;101868.31;2019371;27;3620030;-76
2023/03/02 01:35:37;;;;;;;;;51.00;41.67;;;;;4.71;46.89;101871.78;2006239;28;3608560;-75
2023/03/02 01:36:49;;;;;;;;;54.00;39.67;;;;;4.71;46.70;101864.84;2041205;27;3625214;-76
2023/03/02 01:38:01;;;;;;;;;55.67;43.33;;;;;4.71;47.15;101864.84;2010903;27;3616893;-76
2023/03/02 01:39:16;;;;;;;;;55.67;42.33;;;;;4.71;46.89;101867.47;2009837;28;3608926;-76
2023/03/02 01:40:26;;;;;;;;;58.50;43.00;;;;;4.70;46.76;101863.09;1995033;28;2876709;-76
2023/03/02 01:41:38;;;;;;;;;53.67;41.00;;;;;4.71;46.80;101862.25;2014864;28;3612687;-76
2023/03/02 01:42:56;;;;;;;;;55.14;43.57;;;;;4.70;46.66;101860.50;2016704;28;3627370;-76
2023/03/02 01:44:36;;;;;;;;;55.33;41.00;;;;;4.71;47.14;101854.44;2008179;27;3611749;-76
2023/03/02 01:45:54;;;;;;;;;53.50;44.00;;;;;4.71;46.84;101858.78;2014066;28;2848237;-75
2023/03/02 01:47:13;;;;;;;;;56.00;42.33;;;;;4.71;47.05;101850.97;2016040;28;3595046;-76
2023/03/02 01:48:30;;;;;;;;;55.67;43.67;;;;;4.71;47.14;101853.56;2020499;28;3599204;-76
2023/03/02 01:49:46;;;;;;;;;50.50;40.00;;;;;4.69;46.73;101855.28;2024966;28;2866943;-76
2023/03/02 01:51:00;;;;;;;;;48.67;36.67;;;;;4.67;46.89;101847.44;1999136;27;3585674;-76
2023/03/02 01:52:12;;;;;;;;;52.33;40.33;;;;;4.68;46.86;101850.91;2024103;27;3617938;-75
2023/03/02 01:53:27;;;;;;;;;54.50;41.50;;;;;4.66;46.75;101850.91;1999371;27;2861749;-76
2023/03/02 01:54:41;;;;;;;;;54.00;44.67;;;;;4.64;46.82;101851.75;1992118;28;3607511;-75
2023/03/02 01:55:53;;;;;;;;;57.00;43.00;;;;;4.63;47.13;101850.00;1998602;28;3627337;-76
2023/03/02 01:57:06;;;;;;;;;53.67;42.33;;;;;4.61;47.06;101850.00;1999161;28;3590864;-75
2023/03/02 01:58:19;;;;;;;;;60.67;46.00;;;;;4.61;47.02;101848.28;2023477;28;3625235;-76
2023/03/02 01:59:34;;;;;;;;;49.00;36.67;;;;;4.61;46.75;101847.38;2000321;28;3609597;-75
2023/03/02 02:00:46;;;;;;;;;54.50;41.00;;;;;4.61;47.02;101850.00;1999960;28;2871130;-76
2023/03/02 02:02:02;;;;;;;;;55.67;41.00;;;;;4.60;46.81;101848.22;2000149;27;3595500;-76
2023/03/02 02:03:21;;;;;;;;;47.00;37.00;;;;;4.60;47.10;101845.63;2023516;27;3587193;-75
2023/03/02 02:04:36;;;;;;;;;56.00;42.50;;;;;4.60;47.25;101848.22;2000037;28;2870071;-76
2023/03/02 02:05:59;;;;;;;;;49.67;39.67;;;;;4.59;46.83;101843.91;1991383;28;3607536;-75
2023/03/02 02:07:10;;;;;;;;;55.67;44.00;;;;;4.59;47.26;101843.91;1990992;28;3603756;-76
2023/03/02 02:08:22;;;;;;;;;52.00;40.00;;;;;4.60;47.17;101848.22;2032713;28;3611737;-76
2023/03/02 02:09:39;;;;;;;;;53.00;41.00;;;;;4.60;47.14;101843.03;2022754;27;3601976;-76
2023/03/02 02:10:53;;;;;;;;;53.33;41.00;;;;;4.59;47.28;101843.91;1996971;27;3597106;-76
2023/03/02 02:12:04;;;;;;;;;58.50;41.50;;;;;4.59;46.98;101838.69;2020764;28;2869018;-76
2023/03/02 02:13:16;;;;;;;;;55.00;41.33;;;;;4.57;47.53;101841.25;1998952;27;3595071;-75
2023/03/02 02:14:28;;;;;;;;;53.33;42.33;;;;;4.57;47.15;101845.59;2009334;27;3592259;-75
2023/03/02 02:15:40;;;;;;;;;54.00;42.00;;;;;4.56;47.29;101839.53;2033048;28;3595070;-76
2023/03/02 02:16:52;;;;;;;;;55.80;40.60;;;;;4.57;47.31;101845.59;2027321;28;3610606;-76
2023/03/02 02:18:04;;;;;;;;;53.33;42.00;;;;;4.57;47.40;101846.47;2015234;28;3588792;-75
2023/03/02 02:19:34;;;;;;;;;56.33;43.67;;;;;4.57;47.14;101845.59;2029502;28;3608598;-75
2023/03/02 02:20:55;;;;;;;;;55.33;44.00;;;;;4.55;47.01;101840.38;2002661;27;3603722;-76
2023/03/02 02:22:09;;;;;;;;;53.00;43.33;;;;;4.54;47.18;101838.66;2027508;27;3594531;-75
2023/03/02 02:23:33;;;;;;;;;55.67;41.00;;;;;4.54;47.08;101840.38;2021605;28;3616893;-76
2023/03/02 02:24:57;;;;;;;;;49.00;37.33;;;;;4.53;47.59;101839.50;1991571;28;3602369;-75
2023/03/02 02:26:17;;;;;;;;;49.00;39.00;;;;;4.53;47.59;101849.91;2025254;27;2853393;-75
2023/03/02 02:27:32;;;;;;;;;54.00;43.33;;;;;4.50;47.03;101842.94;2022483;27;3600291;-76
2023/03/02 02:28:48;;;;;;;;;58.33;44.33;;;;;4.50;47.44;101844.66;1991739;28;3611048;-76
2023/03/02 02:30:03;;;;;;;;;44.33;37.67;;;;;4.49;47.38;101841.19;2016660;28;3583581;-76
2023/03/02 02:31:25;;;;;;;;;57.00;40.33;;;;;4.47;47.26;101834.25;2022266;28;3598171;-76
2023/03/02 02:32:39;;;;;;;;;51.33;40.33;;;;;4.45;47.56;101834.19;1998785;28;3586682;-76
2023/03/02 02:34:09;;;;;;;;;55.33;40.67;;;;;4.44;47.34;101826.38;2022709;28;3603347;-75
2023/03/02 02:35:26;;;;;;;;;50.00;40.00;;;;;4.43;47.61;101832.44;2023670;28;3600238;-75
2023/03/02 02:36:42;;;;;;;;;52.33;41.67;;;;;4.42;47.40;101834.16;2023999;27;3582539;-76
2023/03/02 02:38:00;;;;;;;;;54.67;42.33;;;;;4.42;47.24;101830.72;2023392;28;3602330;-75
2023/03/02 02:39:22;;;;;;;;;43.00;35.50;;;;;4.40;47.17;101828.06;1991754;28;2862761;-76
2023/03/02 02:40:49;;;;;;;;;57.67;44.00;;;;;4.37;47.41;101839.31;1995145;28;3617948;-76
2023/03/02 02:42:04;;;;;;;;;49.00;38.00;;;;;4.35;47.62;101833.22;1994956;28;2877343;-76
2023/03/02 02:43:19;;;;;;;;;54.33;41.67;;;;;4.33;47.51;101827.13;1998688;27;3600251;-75
2023/03/02 02:44:31;;;;;;;;;52.00;42.00;;;;;4.32;48.01;101829.72;2023391;27;2854427;-75
2023/03/02 02:45:44;;;;;;;;;54.00;44.33;;;;;4.32;47.14;101834.94;2015939;28;3605446;-76
2023/03/02 02:46:55;;;;;;;;;52.00;37.33;;;;;4.32;47.92;101837.53;1998201;28;3613812;-76
2023/03/02 02:48:19;;;;;;;;;54.67;40.00;;;;;4.30;47.98;101831.47;2008846;27;3588812;-75
2023/03/02 02:49:34;;;;;;;;;52.67;41.00;;;;;4.29;47.78;101825.38;2023453;27;3605967;-76
2023/03/02 02:50:46;;;;;;;;;49.00;39.00;;;;;4.28;47.63;101829.69;1991563;28;3604748;-75
2023/03/02 02:51:58;;;;;;;;;49.33;40.00;;;;;4.28;47.74;101832.28;2022120;28;3588788;-76
2023/03/02 02:53:17;;;;;;;;;57.67;43.00;;;;;4.28;47.81;101823.59;2023076;28;3620592;-76
2023/03/02 02:54:30;;;;;;;;;51.67;41.00;;;;;4.28;47.95;101827.09;1994433;28;3584631;-76
2023/03/02 02:55:41;;;;;;;;;58.50;43.00;;;;;4.27;48.34;101827.94;2019310;28;2877351;-75
2023/03/02 02:56:54;;;;;;;;;51.67;39.00;;;;;4.25;48.14;101821.84;1997851;27;3595006;-75
2023/03/02 02:58:23;;;;;;;;;55.00;41.33;;;;;4.23;47.56;101815.75;2020992;28;3621103;-75
2023/03/02 02:59:40;;;;;;;;;54.00;38.67;;;;;4.23;47.53;101826.16;1999093;27;3604501;-76
2023/03/02 03:00:53;;;;;;;;;52.00;42.00;;;;;4.23;47.69;101828.75;1998322;27;3584599;-75
2023/03/02 03:02:05;;;;;;;;;51.67;42.00;;;;;4.24;47.54;101827.03;2016459;28;3588808;-76
2023/03/02 03:03:29;;;;;;;;;59.67;44.67;;;;;4.22;48.17;101829.59;2038137;28;3610679;-75
2023/03/02 03:04:40;;;;;;;;;38.33;35.00;;;;;4.22;48.19;101818.34;1999737;27;3591906;-76
2023/03/02 03:05:52;;;;;;;;;56.67;43.67;;;;;4.22;47.93;101823.56;2038971;28;3620549;-75
2023/03/02 03:07:05;;;;;;;;;54.29;41.14;;;;;4.22;48.11;101821.81;2032491;27;3613826;-76
2023/03/02 03:08:39;;;;;;;;;51.67;41.67;;;;;4.21;47.77;101822.69;2017125;28;3577327;-76
2023/03/02 03:09:59;;;;;;;;;57.00;44.00;;;;;4.21;47.82;101822.69;2021203;28;3599181;-76
2023/03/02 03:11:14;;;;;;;;;56.00;43.33;;;;;4.21;47.48;101821.78;2017311;28;3606562;-75
2023/03/02 03:12:27;;;;;;;;;58.67;45.33;;;;;4.20;48.01;101825.28;1990481;28;3611681;-76
2023/03/02 03:13:41;;;;;;;;;61.00;46.33;;;;;4.20;47.86;101823.53;1991934;28;3646051;-75
2023/03/02 03:14:54;;;;;;;;;57.67;44.33;;;;;4.18;48.11;101825.22;1999976;28;3610655;-75
2023/03/02 03:16:10;;;;;;;;;57.00;44.33;;;;;4.18;48.17;101824.34;2023817;28;3604421;-76
2023/03/02 03:17:21;;;;;;;;;56.00;41.67;;;;;4.18;47.75;101833.03;2031352;27;3608563;-75
2023/03/02 03:18:33;;;;;;;;;54.33;44.00;;;;;4.17;47.57;101820.91;2020123;27;3581840;-75
2023/03/02 03:19:46;;;;;;;;;52.67;43.33;;;;;4.19;48.29;101828.72;2036858;27;3588765;-76
2023/03/02 03:20:57;;;;;;;;;51.67;41.67;;;;;4.17;48.22;101826.09;2018484;27;3596068;-76
2023/03/02 03:22:11;;;;;;;;;57.33;43.67;;;;;4.15;48.27;101827.78;2038770;27;3629407;-76
2023/03/02 03:23:23;;;;;;;;;56.33;42.33;;;;;4.14;48.13;101832.16;1997694;28;3616963;-76
2023/03/02 03:24:35;;;;;;;;;56.00;41.67;;;;;4.13;48.18;101827.78;2000143;28;3603368;-76
2023/03/02 03:25:47;;;;;;;;;47.00;38.33;;;;;4.13;48.15;101827.78;2037163;27;3596072;-76
2023/03/02 03:27:00;;;;;;;;;55.33;43.33;;;;;4.14;48.45;101826.06;2027081;27;3602312;-75
2023/03/02 03:28:12;;;;;;;;;57.00;43.00;;;;;4.12;48.23;101822.56;1993137;28;3610706;-76
2023/03/02 03:29:26;;;;;;;;;55.67;43.00;;;;;4.11;47.85;101826.03;2011464;27;3612845;-76
2023/03/02 03:30:38;;;;;;;;;53.00;40.67;;;;;4.11;48.43;101832.09;1992231;28;3597154;-76
2023/03/02 03:31:51;;;;;;;;;59.67;44.33;;;;;4.11;48.21;101826.03;2033502;28;3619000;-76
2023/03/02 03:33:03;;;;;;;;;57.33;43.67;;;;;4.11;48.03;101826.03;1994510;28;3616889;-76
2023/03/02 03:34:15;;;;;;;;;52.33;40.00;;;;;4.09;48.89;101828.63;2009184;28;3604405;-76
2023/03/02 03:35:26;;;;;;;;;52.33;40.00;;;;;4.08;48.37;101816.44;2022774;27;3609637;-76
2023/03/02 03:36:38;;;;;;;;;56.00;42.33;;;;;4.07;48.07;101821.66;2010268;28;3616904;-75
2023/03/02 03:37:50;;;;;;;;;52.33;44.33;;;;;4.05;47.79;101819.00;2009678;28;3608568;-75
2023/03/02 03:39:04;;;;;;;;;52.00;44.67;;;;;4.02;48.23;101817.28;2030675;28;3590867;-76
2023/03/02 03:40:16;;;;;;;;;55.33;44.33;;;;;4.01;48.49;101819.84;2020265;28;3598163;-75
2023/03/02 03:41:28;;;;;;;;;57.33;43.00;;;;;4.00;48.21;101820.69;2029773;28;3620127;-75
2023/03/02 03:42:40;;;;;;;;;47.00;38.40;;;;;4.00;48.67;101821.56;2011386;28;3585597;-76
2023/03/02 03:43:54;;;;;;;;;49.86;38.57;;;;;3.98;48.47;101820.66;2038025;28;3608580;-76
2023/03/02 03:45:07;;;;;;;;;54.33;42.00;;;;;3.97;48.91;101821.53;1993323;28;3600258;-75
2023/03/02 03:46:18;;;;;;;;;50.33;42.00;;;;;3.97;48.34;101823.25;2018790;28;3590844;-75
2023/03/02 03:47:30;;;;;;;;;52.00;42.33;;;;;3.97;48.40;101818.06;2030076;28;3583567;-76
2023/03/02 03:48:42;;;;;;;;;54.67;44.00;;;;;3.96;48.51;101813.69;2039735;27;3605434;-75
2023/03/02 03:49:54;;;;;;;;;52.00;39.00;;;;;3.96;48.39;101824.09;2037452;27;3612857;-76
2023/03/02 03:51:06;;;;;;;;;55.67;41.67;;;;;3.96;48.97;101822.38;2007240;28;3602361;-76
2023/03/02 03:52:29;;;;;;;;;58.33;45.00;;;;;3.95;48.97;101818.06;2037011;28;3616894;-76
2023/03/02 03:53:40;;;;;;;;;61.00;45.00;;;;;3.95;48.26;101823.25;1996579;27;3636677;-76
2023/03/02 03:54:52;;;;;;;;;51.33;44.00;;;;;3.94;49.00;101824.09;2009640;28;3601368;-76
2023/03/02 03:56:04;;;;;;;;;59.60;44.40;;;;;3.94;48.47;101824.97;2019674;28;2879387;-75
2023/03/02 03:57:15;;;;;;;;;49.67;40.67;;;;;3.95;48.74;101820.66;2028192;28;3607506;-75
2023/03/02 03:58:30;;;;;;;;;54.14;44.14;;;;;3.95;48.22;101820.66;2041469;28;3597090;-76
2023/03/02 03:59:41;;;;;;;;;49.33;41.00;;;;;3.94;48.72;101819.78;2008140;27;3591913;-75
2023/03/02 04:00:53;;;;;;;;;61.00;42.33;;;;;3.95;48.87;101815.44;2045187;27;3626279;-75
2023/03/02 04:02:07;;;;;;;;;58.00;46.00;;;;;3.94;48.82;101829.28;2010749;28;3620041;-75
2023/03/02 04:03:19;;;;;;;;;55.33;44.33;;;;;3.93;48.65;101818.00;1992324;28;3602483;-75
2023/03/02 04:04:33;;;;;;;;;57.67;45.00;;;;;3.93;48.77;101827.53;1991263;28;3604397;-76
2023/03/02 04:05:46;;;;;;;;;53.00;39.67;;;;;3.92;48.51;101825.81;1998336;28;3578844;-75
2023/03/02 04:06:58;;;;;;;;;45.33;36.00;;;;;3.90;48.81;101828.38;2022626;28;3609648;-75
2023/03/02 04:08:10;;;;;;;;;50.33;41.33;;;;;3.92;48.54;101825.81;1992871;28;3589851;-75
2023/03/02 04:09:22;;;;;;;;;47.00;41.33;;;;;3.91;48.81;101826.66;2029739;28;3561722;-75
2023/03/02 04:10:34;;;;;;;;;58.33;45.00;;;;;3.91;49.03;101827.53;2020501;27;3626335;-75
2023/03/02 04:11:49;;;;;;;;;56.67;41.67;;;;;3.90;49.33;101824.91;1998278;28;3621080;-76
2023/03/02 04:13:01;;;;;;;;;56.67;41.00;;;;;3.88;48.34;101830.09;1992607;28;3604382;-75
2023/03/02 04:14:13;;;;;;;;;54.33;40.67;;;;;3.89;48.52;101830.97;2015440;28;3602325;-75
2023/03/02 04:15:24;;;;;;;;;54.33;43.33;;;;;3.88;48.63;101824.00;2019022;28;3583589;-76
2023/03/02 04:16:37;;;;;;;;;56.67;44.00;;;;;3.88;49.29;101839.59;2035641;28;3614843;-76
2023/03/02 04:17:49;;;;;;;;;56.33;41.00;;;;;3.87;48.74;101830.06;1998410;28;3604445;-75
2023/03/02 04:19:00;;;;;;;;;46.50;36.50;;;;;3.85;48.90;101831.78;1993772;28;2860690;-76
2023/03/02 04:20:16;;;;;;;;;56.67;43.33;;;;;3.86;49.29;101830.91;1995531;28;3619986;-75
2023/03/02 04:21:27;;;;;;;;;61.33;44.67;;;;;3.86;48.64;101830.91;1996314;28;3616868;-75
2023/03/02 04:22:39;;;;;;;;;57.67;45.67;;;;;3.86;48.49;101837.00;2006456;28;3625605;-76
2023/03/02 04:23:52;;;;;;;;;57.00;43.33;;;;;3.86;48.70;101830.91;2013142;28;3617931;-75
2023/03/02 04:25:04;;;;;;;;;57.00;44.00;;;;;3.85;48.90;101831.78;2003903;28;3608559;-76
2023/03/02 04:26:15;;;;;;;;;55.67;43.33;;;;;3.82;49.03;101830.91;2000095;27;3611162;-76
2023/03/02 04:27:27;;;;;;;;;49.00;39.20;;;;;3.81;49.05;101834.34;2021852;27;3604391;-75
2023/03/02 04:28:40;;;;;;;;;53.29;41.71;;;;;3.82;48.74;101833.50;2022290;27;3614821;-75
2023/03/02 04:29:52;;;;;;;;;58.33;45.33;;;;;3.81;49.07;101830.84;2015983;28;3607592;-75
2023/03/02 04:31:04;;;;;;;;;51.33;40.33;;;;;3.81;48.63;101839.53;2032731;28;3593969;-76
2023/03/02 04:32:16;;;;;;;;;54.67;43.00;;;;;3.83;49.00;101831.75;2028718;28;3597145;-75
2023/03/02 04:33:28;;;;;;;;;60.00;45.33;;;;;3.85;49.17;101839.59;2031753;28;3623173;-75
2023/03/02 04:34:40;;;;;;;;;57.67;44.00;;;;;3.82;49.27;101833.50;2016404;27;3619005;-76
2023/03/02 04:35:53;;;;;;;;;54.67;45.00;;;;;3.82;49.04;101837.81;2015562;28;3607526;-75
2023/03/02 04:37:05;;;;;;;;;55.33;44.67;;;;;3.80;49.30;101827.38;1998178;28;3606492;-75
2023/03/02 04:38:16;;;;;;;;;55.33;44.00;;;;;3.81;49.33;101828.25;2025239;27;3607525;-76
2023/03/02 04:39:28;;;;;;;;;61.33;45.00;;;;;3.82;49.03;101836.09;2015223;27;3624250;-75
2023/03/02 04:40:40;;;;;;;;;58.00;47.00;;;;;3.82;49.09;101835.22;2014523;27;3602314;-75
2023/03/02 04:41:52;;;;;;;;;56.33;42.67;;;;;3.80;49.34;101829.97;2014755;28;3623265;-75
2023/03/02 04:43:04;;;;;;;;;55.00;44.67;;;;;3.80;49.48;101842.97;2010620;28;3613844;-75
2023/03/02 04:44:17;;;;;;;;;58.67;44.00;;;;;3.82;49.22;101843.03;2008156;28;3622181;-76
2023/03/02 04:45:29;;;;;;;;;57.33;45.00;;;;;3.81;49.01;101839.53;1996140;28;3606497;-75
2023/03/02 04:46:41;;;;;;;;;55.67;44.00;;;;;3.82;49.11;101841.31;2004285;28;3608597;-75
2023/03/02 04:47:53;;;;;;;;;58.33;44.67;;;;;3.82;49.54;101841.31;2009497;27;3605427;-76
2023/03/02 04:49:06;;;;;;;;;58.57;46.86;;;;;3.81;49.56;101834.34;2033692;28;3602352;-76
2023/03/02 04:50:17;;;;;;;;;42.50;35.00;;;;;3.80;49.31;101842.97;2001198;28;2873204;-75
2023/03/02 04:51:36;;;;;;;;;57.00;46.67;;;;;3.80;49.35;101842.97;2016398;28;3582523;-76
2023/03/02 04:52:49;;;;;;;;;56.00;44.00;;;;;3.78;49.41;101834.28;2021794;28;3605443;-75
2023/03/02 04:54:03;;;;;;;;;54.33;43.00;;;;;3.78;49.00;101836.00;2024823;27;3606473;-75
2023/03/02 04:55:21;;;;;;;;;53.67;40.00;;;;;3.78;49.02;101849.91;1999739;27;3592995;-76
2023/03/02 04:56:33;;;;;;;;;56.00;45.67;;;;;3.77;49.51;101845.56;2022653;27;3613768;-75
2023/03/02 04:57:45;;;;;;;;;57.33;44.00;;;;;3.78;49.22;101846.41;1997156;28;3625319;-75
2023/03/02 04:58:57;;;;;;;;;58.67;46.33;;;;;3.77;49.82;101844.69;2014810;28;3598192;-76
2023/03/02 05:00:10;;;;;;;;;60.67;44.00;;;;;3.76;48.92;101841.19;2002298;28;3614841;-76
2023/03/02 05:01:22;;;;;;;;;58.00;45.67;;;;;3.75;49.44;101846.41;1994216;28;3617947;-76
2023/03/02 05:02:33;;;;;;;;;54.00;42.67;;;;;3.75;49.50;101841.19;1997959;27;3600224;-76
2023/03/02 05:03:46;;;;;;;;;57.00;45.00;;;;;3.74;49.33;101839.44;2016621;27;3607527;-75
2023/03/02 05:04:57;;;;;;;;;61.00;47.33;;;;;3.73;49.51;101838.56;2023414;27;3624192;-76
2023/03/02 05:06:09;;;;;;;;;56.00;43.67;;;;;3.71;49.47;101830.75;2018278;27;3613089;-76
2023/03/02 05:07:21;;;;;;;;;58.33;44.67;;;;;3.71;49.39;101833.34;2015823;27;3616911;-75
2023/03/02 05:08:33;;;;;;;;;54.33;43.33;;;;;3.71;49.44;101832.47;2016426;27;3610662;-76
2023/03/02 05:09:45;;;;;;;;;58.00;47.00;;;;;3.71;49.46;101827.25;2010473;27;3595110;-76
2023/03/02 05:10:57;;;;;;;;;56.67;42.67;;;;;3.72;49.68;101834.22;2038407;27;3604473;-76
2023/03/02 05:12:09;;;;;;;;;63.33;45.00;;;;;3.70;49.30;101834.19;2039430;28;3626295;-76
2023/03/02 05:13:25;;;;;;;;;54.29;44.14;;;;;3.69;49.76;101827.25;2009816;28;3590854;-76
2023/03/02 05:14:37;;;;;;;;;55.00;46.00;;;;;3.70;49.33;101835.94;1987184;28;3588815;-75
2023/03/02 05:15:50;;;;;;;;;62.67;49.33;;;;;3.68;49.32;101841.09;2036778;28;3635691;-76
2023/03/02 05:17:02;;;;;;;;;55.67;44.00;;;;;3.66;49.84;101847.13;2000436;28;3602306;-75
2023/03/02 05:18:13;;;;;;;;;46.00;38.00;;;;;3.64;49.52;101838.44;2035520;28;3603694;-76
2023/03/02 05:19:25;;;;;;;;;59.00;46.67;;;;;3.62;49.58;101837.53;2041162;27;3604418;-75
2023/03/02 05:20:38;;;;;;;;;61.33;47.33;;;;;3.60;49.54;101840.97;2013602;27;3605455;-75
2023/03/02 05:21:49;;;;;;;;;58.00;44.33;;;;;3.62;49.82;101843.63;1999742;27;3603379;-75
2023/03/02 05:23:05;;;;;;;;;62.33;46.00;;;;;3.63;49.66;101839.31;2036536;27;3609597;-75
2023/03/02 05:24:17;;;;;;;;;56.67;46.67;;;;;3.63;49.30;101834.09;1998831;28;3586682;-75
2023/03/02 05:25:31;;;;;;;;;61.00;45.67;;;;;3.62;50.03;101837.53;2020148;27;3626312;-75
2023/03/02 05:26:42;;;;;;;;;57.00;48.00;;;;;3.62;49.60;101841.03;1992728;28;3605581;-75
2023/03/02 05:27:54;;;;;;;;;61.67;49.00;;;;;3.62;49.12;101832.34;2012033;28;3624184;-75
2023/03/02 05:29:06;;;;;;;;;63.00;46.00;;;;;3.62;49.43;101842.75;2012091;27;3613788;-75
2023/03/02 05:30:19;;;;;;;;;59.00;47.67;;;;;3.61;50.03;101834.06;2011326;27;3597125;-76